createdAt,value
2019-04-28T00:01:21.099Z,12.00
2019-04-28T00:03:48.516Z,11.80
2019-04-28T00:06:15.635Z,11.90
2019-04-28T00:08:42.974Z,11.70
2019-04-28T00:11:11.737Z,11.70
2019-04-28T00:13:39.115Z,11.70
2019-04-28T00:16:07.824Z,12.00
2019-04-28T00:18:35.277Z,12.10
2019-04-28T00:23:55.778Z,11.90
2019-04-28T00:26:24.795Z,11.90
2019-04-28T00:28:52.015Z,12.10
2019-04-28T00:31:21.229Z,12.30
2019-04-28T00:33:48.574Z,12.20
2019-04-28T00:36:15.725Z,12.10
2019-04-28T00:38:43.075Z,12.10
2019-04-28T00:41:11.015Z,12.40
2019-04-28T00:43:41.688Z,12.40
2019-04-28T00:46:10.794Z,12.40
2019-04-28T00:48:38.774Z,12.30
2019-04-28T00:51:06.175Z,12.40
2019-04-28T00:53:34.583Z,12.50
2019-04-28T00:56:02.266Z,12.60
2019-04-28T00:58:31.830Z,12.60
2019-04-28T01:01:07.376Z,12.60
2019-04-28T01:03:34.535Z,12.70
2019-04-28T01:06:01.978Z,12.70
2019-04-28T01:08:30.870Z,12.60
2019-04-28T01:10:58.571Z,12.60
2019-04-28T01:13:25.794Z,12.60
2019-04-28T01:15:59.406Z,12.60
2019-04-28T01:18:40.555Z,12.50
2019-04-28T01:21:08.040Z,12.60
2019-04-28T01:23:35.275Z,12.60
2019-04-28T01:26:02.534Z,12.20
2019-04-28T01:28:29.822Z,12.50
2019-04-28T01:31:09.540Z,12.40
2019-04-28T01:33:53.975Z,12.60
2019-04-28T01:36:21.440Z,12.90
2019-04-28T01:38:50.073Z,12.70
2019-04-28T01:41:19.712Z,12.90
2019-04-28T01:43:46.897Z,12.70
2019-04-28T01:46:14.418Z,12.90
2019-04-28T01:48:41.776Z,12.70
2019-04-28T01:51:09.515Z,12.80
2019-04-28T01:53:37.008Z,12.50
2019-04-28T01:56:04.134Z,12.60
2019-04-28T01:58:33.136Z,12.60
2019-04-28T02:01:00.535Z,12.50
2019-04-28T02:03:27.955Z,12.40
2019-04-28T02:05:55.715Z,12.20
2019-04-28T02:08:22.875Z,12.30
2019-04-28T02:10:50.335Z,12.30
2019-04-28T02:13:19.734Z,12.20
2019-04-28T02:15:47.114Z,12.10
2019-04-28T02:18:14.155Z,12.10
2019-04-28T02:20:43.315Z,12.30
2019-04-28T02:23:16.993Z,12.30
2019-04-28T02:25:44.154Z,12.10
2019-04-28T02:28:12.654Z,12.40
2019-04-28T02:30:48.619Z,12.20
2019-04-28T02:33:11.292Z,12.20
2019-04-28T02:35:41.773Z,12.10
2019-04-28T02:38:11.380Z,12.20
2019-04-28T02:40:40.605Z,12.30
2019-04-28T02:43:11.497Z,12.30
2019-04-28T02:45:41.285Z,12.40
2019-04-28T02:48:11.152Z,12.50
2019-04-28T02:50:45.924Z,12.40
2019-04-28T02:53:14.879Z,12.20
2019-04-28T02:55:41.955Z,12.40
2019-04-28T02:58:10.731Z,12.40
2019-04-28T03:00:37.968Z,12.50
2019-04-28T03:03:05.171Z,12.30
2019-04-28T03:05:33.387Z,12.60
2019-04-28T03:08:01.335Z,12.40
2019-04-28T03:10:31.100Z,12.40
2019-04-28T03:13:00.791Z,12.40
2019-04-28T03:15:26.777Z,12.40
2019-04-28T03:17:54.859Z,12.50
2019-04-28T03:20:22.019Z,12.50
2019-04-28T03:22:51.089Z,12.30
2019-04-28T03:25:20.799Z,12.30
2019-04-28T03:28:04.838Z,12.40
2019-04-28T03:30:54.002Z,12.20
2019-04-28T03:33:25.704Z,12.20
2019-04-28T03:35:53.521Z,12.20
2019-04-28T03:38:21.359Z,12.20
2019-04-28T03:40:51.282Z,12.40
2019-04-28T03:43:21.000Z,12.50
2019-04-28T03:45:51.739Z,12.40
2019-04-28T03:48:21.112Z,12.50
2019-04-28T03:50:51.184Z,12.30
2019-04-28T03:53:17.458Z,12.40
2019-04-28T03:55:44.636Z,12.40
2019-04-28T03:58:11.878Z,12.30
2019-04-28T04:00:40.817Z,12.40
2019-04-28T04:03:10.908Z,12.30
2019-04-28T04:05:40.615Z,12.50
2019-04-28T04:08:11.020Z,12.30
2019-04-28T04:10:42.279Z,12.40
2019-04-28T04:13:11.277Z,12.40
2019-04-28T04:15:49.663Z,12.00
2019-04-28T04:18:23.273Z,12.10
2019-04-28T04:20:51.433Z,12.00
2019-04-28T04:23:22.800Z,12.10
2019-04-28T04:25:48.156Z,12.20
2019-04-28T04:28:15.362Z,12.10
2019-04-28T04:30:42.456Z,11.90
2019-04-28T04:33:11.478Z,12.00
2019-04-28T04:35:43.134Z,12.00
2019-04-28T04:38:10.274Z,11.90
2019-04-28T04:40:36.838Z,12.00
2019-04-28T04:43:04.178Z,12.00
2019-04-28T04:45:31.502Z,12.20
2019-04-28T04:48:00.759Z,12.10
2019-04-28T04:50:28.174Z,12.00
2019-04-28T04:52:55.325Z,11.90
2019-04-28T04:55:22.694Z,11.90
2019-04-28T04:57:50.956Z,11.70
2019-04-28T05:00:22.577Z,11.70
2019-04-28T05:02:57.397Z,11.70
2019-04-28T05:05:26.316Z,11.50
2019-04-28T05:07:53.456Z,11.60
2019-04-28T05:10:20.716Z,11.60
2019-04-28T05:12:47.996Z,11.70
2019-04-28T05:15:15.037Z,11.30
2019-04-28T05:17:42.096Z,11.40
2019-04-28T05:20:10.395Z,11.50
2019-04-28T05:22:40.030Z,11.60
2019-04-28T05:25:11.856Z,11.80
2019-04-28T05:27:39.903Z,12.30
2019-04-28T05:30:10.390Z,12.90
2019-04-28T05:32:44.655Z,14.00
2019-04-28T05:35:07.136Z,14.60
2019-04-28T05:37:34.288Z,14.70
2019-04-28T05:40:02.990Z,14.70
2019-04-28T05:42:30.259Z,15.40
2019-04-28T05:44:57.718Z,15.60
2019-04-28T05:47:24.816Z,15.10
2019-04-28T05:50:10.643Z,14.50
2019-04-28T05:52:55.716Z,13.90
2019-04-28T05:55:24.576Z,13.50
2019-04-28T05:58:09.944Z,13.40
2019-04-28T06:00:44.537Z,13.00
2019-04-28T06:03:22.336Z,12.80
2019-04-28T06:05:49.737Z,12.50
2019-04-28T06:08:34.016Z,12.80
2019-04-28T06:11:02.956Z,12.80
2019-04-28T06:13:30.363Z,12.80
2019-04-28T06:15:59.850Z,13.00
2019-04-28T06:18:27.115Z,13.00
2019-04-28T06:20:55.250Z,13.00
2019-04-28T06:23:22.415Z,13.20
2019-04-28T06:25:50.070Z,13.30
2019-04-28T06:28:17.096Z,13.20
2019-04-28T06:30:44.219Z,13.20
2019-04-28T06:33:11.619Z,13.00
2019-04-28T06:35:38.784Z,13.00
2019-04-28T06:38:06.116Z,13.10
2019-04-28T06:40:34.475Z,13.10
2019-04-28T06:43:01.576Z,13.20
2019-04-28T06:45:28.636Z,13.60
2019-04-28T06:47:55.775Z,13.80
2019-04-28T06:50:23.063Z,13.90
2019-04-28T06:52:50.221Z,14.00
2019-04-28T06:55:17.335Z,14.00
2019-04-28T06:57:44.536Z,14.20
2019-04-28T07:00:13.220Z,14.10
2019-04-28T07:02:40.640Z,14.10
2019-04-28T07:05:09.376Z,14.10
2019-04-28T07:07:36.484Z,13.60
2019-04-28T07:10:06.450Z,14.00
2019-04-28T07:12:33.463Z,14.50
2019-04-28T07:15:00.599Z,14.30
2019-04-28T07:17:27.756Z,14.50
2019-04-28T07:19:56.669Z,14.10
2019-04-28T07:22:28.156Z,13.90
2019-04-28T07:24:55.696Z,14.10
2019-04-28T07:27:22.876Z,14.20
2019-04-28T07:29:50.041Z,14.50
2019-04-28T07:32:17.216Z,15.00
2019-04-28T07:34:44.576Z,14.90
2019-04-28T07:37:11.717Z,14.90
2019-04-28T07:39:38.856Z,15.40
2019-04-28T07:42:05.942Z,15.90
2019-04-28T07:44:34.243Z,16.10
2019-04-28T07:47:01.476Z,15.90
2019-04-28T07:49:28.575Z,15.40
2019-04-28T07:51:57.414Z,15.30
2019-04-28T07:54:24.976Z,15.00
2019-04-28T07:56:52.135Z,14.80
2019-04-28T07:59:20.456Z,14.70
2019-04-28T08:01:47.755Z,14.80
2019-04-28T08:04:15.861Z,15.40
2019-04-28T08:06:42.976Z,15.60
2019-04-28T08:09:14.655Z,15.90
2019-04-28T08:11:41.715Z,16.30
2019-04-28T08:14:08.796Z,16.20
2019-04-28T08:16:35.960Z,16.10
2019-04-28T08:19:03.134Z,15.80
2019-04-28T08:21:30.258Z,15.30
2019-04-28T08:23:57.373Z,15.30
2019-04-28T08:26:24.523Z,14.70
2019-04-28T08:28:51.663Z,13.90
2019-04-28T08:31:20.710Z,13.70
2019-04-28T08:34:01.732Z,14.00
2019-04-28T08:36:20.024Z,14.10
2019-04-28T08:38:48.323Z,14.00
2019-04-28T08:41:15.423Z,14.00
2019-04-28T08:43:42.542Z,13.80
2019-04-28T08:46:09.583Z,13.80
2019-04-28T08:48:36.682Z,13.80
2019-04-28T08:51:04.043Z,13.90
2019-04-28T08:53:31.049Z,14.10
2019-04-28T08:55:59.083Z,14.10
2019-04-28T08:58:26.204Z,14.30
2019-04-28T09:00:53.443Z,14.10
2019-04-28T09:03:20.523Z,14.00
2019-04-28T09:05:47.623Z,13.90
2019-04-28T09:08:14.883Z,14.10
2019-04-28T09:10:42.025Z,13.90
2019-04-28T09:13:09.163Z,14.30
2019-04-28T09:15:36.354Z,14.10
2019-04-28T09:18:03.882Z,14.50
2019-04-28T09:20:30.921Z,14.50
2019-04-28T09:22:58.078Z,14.30
2019-04-28T09:25:25.238Z,14.60
2019-04-28T09:27:52.375Z,14.80
2019-04-28T09:30:19.629Z,15.20
2019-04-28T09:32:46.778Z,15.30
2019-04-28T09:35:13.920Z,14.90
2019-04-28T09:37:41.573Z,15.50
2019-04-28T09:40:11.062Z,15.40
2019-04-28T09:42:39.956Z,15.60
2019-04-28T09:45:09.239Z,15.60
2019-04-28T09:47:37.487Z,15.60
2019-04-28T09:50:05.752Z,15.50
2019-04-28T09:52:32.967Z,15.00
2019-04-28T09:55:00.424Z,15.30
2019-04-28T09:57:27.680Z,15.40
2019-04-28T09:59:54.841Z,15.80
2019-04-28T10:02:22.199Z,16.00
2019-04-28T10:04:49.437Z,15.80
2019-04-28T10:07:17.900Z,16.40
2019-04-28T10:09:45.044Z,16.50
2019-04-28T10:12:12.145Z,16.20
2019-04-28T10:14:39.726Z,16.40
2019-04-28T10:17:07.046Z,16.30
2019-04-28T10:19:34.178Z,16.50
2019-04-28T10:22:01.637Z,16.50
2019-04-28T10:24:29.533Z,16.70
2019-04-28T10:26:56.752Z,16.20
2019-04-28T10:29:24.154Z,16.20
2019-04-28T10:31:51.853Z,16.10
2019-04-28T10:34:18.900Z,16.10
2019-04-28T10:36:47.898Z,16.40
2019-04-28T10:39:28.863Z,15.80
2019-04-28T10:41:56.792Z,16.00
2019-04-28T10:44:25.218Z,15.80
2019-04-28T10:46:52.601Z,15.80
2019-04-28T10:49:20.088Z,16.10
2019-04-28T10:51:58.822Z,16.30
2019-04-28T10:54:16.267Z,16.20
2019-04-28T10:56:43.422Z,16.20
2019-04-28T10:59:10.771Z,16.80
2019-04-28T11:01:38.042Z,16.50
2019-04-28T11:04:23.423Z,16.30
2019-04-28T11:07:14.103Z,16.20
2019-04-28T11:10:08.392Z,15.70
2019-04-28T11:12:35.539Z,15.50
2019-04-28T11:15:07.690Z,15.10
2019-04-28T11:17:34.950Z,15.10
2019-04-28T11:20:02.391Z,14.90
2019-04-28T11:22:29.708Z,15.30
2019-04-28T11:24:57.221Z,15.40
2019-04-28T11:27:24.845Z,15.40
2019-04-28T11:29:52.027Z,15.90
2019-04-28T11:32:19.302Z,15.80
2019-04-28T11:35:00.448Z,15.60
2019-04-28T11:37:27.684Z,15.90
2019-04-28T11:39:54.846Z,16.10
2019-04-28T11:42:23.339Z,15.90
2019-04-28T11:44:51.383Z,15.70
2019-04-28T11:47:20.306Z,15.90
2019-04-28T11:49:47.440Z,16.20
2019-04-28T11:52:25.539Z,16.20
2019-04-28T11:54:52.699Z,16.10
2019-04-28T11:57:19.960Z,15.90
2019-04-28T11:59:47.200Z,15.90
2019-04-28T12:02:14.440Z,16.10
2019-04-28T12:04:41.481Z,15.80
2019-04-28T12:07:10.080Z,16.20
2019-04-28T12:09:39.283Z,16.10
2019-04-28T12:12:09.700Z,16.40
2019-04-28T12:14:38.564Z,16.30
2019-04-28T12:17:25.240Z,16.50
2019-04-28T12:19:54.400Z,16.60
2019-04-28T12:22:21.647Z,17.00
2019-04-28T12:24:50.119Z,16.90
2019-04-28T12:27:17.440Z,17.00
2019-04-28T12:29:45.968Z,17.50
2019-04-28T12:32:13.102Z,17.40
2019-04-28T12:34:41.593Z,17.40
2019-04-28T12:37:08.842Z,17.20
2019-04-28T12:39:35.974Z,17.40
2019-04-28T12:42:03.334Z,17.40
2019-04-28T12:44:30.621Z,17.80
2019-04-28T12:46:57.758Z,17.50
2019-04-28T12:49:29.513Z,17.80
2019-04-28T12:51:57.992Z,17.60
2019-04-28T12:54:27.175Z,17.80
2019-04-28T12:56:54.433Z,18.00
2019-04-28T12:59:23.313Z,17.80
2019-04-28T13:02:04.273Z,18.70
2019-04-28T13:04:42.213Z,19.10
2019-04-28T13:07:09.600Z,19.40
2019-04-28T13:09:36.741Z,19.00
2019-04-28T13:12:05.241Z,18.30
2019-04-28T13:14:32.341Z,18.20
2019-04-28T13:16:59.642Z,18.50
2019-04-28T13:19:26.740Z,18.80
2019-04-28T13:21:54.074Z,19.10
2019-04-28T13:24:21.433Z,19.00
2019-04-28T13:26:48.699Z,18.60
2019-04-28T13:29:15.920Z,18.60
2019-04-28T13:31:43.180Z,18.50
2019-04-28T13:34:12.072Z,17.80
2019-04-28T13:36:39.189Z,17.90
2019-04-28T13:39:09.918Z,18.10
2019-04-28T13:41:37.516Z,18.20
2019-04-28T13:44:06.858Z,18.70
2019-04-28T13:46:36.044Z,18.70
2019-04-28T13:49:05.641Z,18.60
2019-04-28T13:51:32.983Z,18.80
2019-04-28T13:54:01.963Z,18.90
2019-04-28T13:56:30.471Z,18.90
2019-04-28T13:58:59.523Z,18.30
2019-04-28T14:01:28.410Z,18.70
2019-04-28T14:03:57.651Z,18.70
2019-04-28T14:06:30.775Z,18.80
2019-04-28T14:08:58.074Z,19.20
2019-04-28T14:11:25.248Z,19.40
2019-04-28T14:13:52.566Z,19.40
2019-04-28T14:16:19.715Z,19.00
2019-04-28T14:18:47.102Z,18.80
2019-04-28T14:21:14.471Z,18.60
2019-04-28T14:23:41.723Z,18.20
2019-04-28T14:26:08.972Z,18.50
2019-04-28T14:28:36.741Z,18.80
2019-04-28T14:31:04.251Z,18.50
2019-04-28T14:33:31.492Z,18.60
2019-04-28T14:35:58.770Z,18.90
2019-04-28T14:38:26.673Z,18.40
2019-04-28T14:40:54.086Z,18.50
2019-04-28T14:43:21.314Z,18.70
2019-04-28T14:45:48.388Z,18.90
2019-04-28T14:48:16.794Z,18.80
2019-04-28T14:50:44.016Z,19.50
2019-04-28T14:53:12.769Z,19.20
2019-04-28T14:55:40.096Z,19.10
2019-04-28T14:58:09.438Z,19.20
2019-04-28T15:00:38.424Z,19.50
2019-04-28T15:03:16.929Z,19.50
2019-04-28T15:06:02.946Z,19.30
2019-04-28T15:08:31.914Z,19.40
2019-04-28T15:11:01.326Z,19.20
2019-04-28T15:13:28.734Z,19.40
2019-04-28T15:15:56.538Z,19.20
2019-04-28T15:18:23.839Z,19.50
2019-04-28T15:20:53.435Z,19.30
2019-04-28T15:23:20.956Z,19.40
2019-04-28T15:25:48.079Z,19.30
2019-04-28T15:28:15.253Z,19.70
2019-04-28T15:30:42.539Z,19.90
2019-04-28T15:33:09.955Z,19.90
2019-04-28T15:35:38.296Z,20.00
2019-04-28T15:38:05.492Z,19.80
2019-04-28T15:40:33.752Z,20.30
2019-04-28T15:43:00.832Z,20.10
2019-04-28T15:45:29.272Z,19.60
2019-04-28T15:47:56.398Z,19.40
2019-04-28T15:50:25.255Z,19.30
2019-04-28T15:52:52.572Z,19.10
2019-04-28T15:55:24.632Z,19.40
2019-04-28T15:57:51.700Z,19.30
2019-04-28T16:00:20.061Z,19.60
2019-04-28T16:02:47.211Z,19.40
2019-04-28T16:05:14.492Z,19.70
2019-04-28T16:07:41.671Z,19.10
2019-04-28T16:10:10.354Z,19.10
2019-04-28T16:12:37.962Z,19.10
2019-04-28T16:15:07.403Z,19.30
2019-04-28T16:17:34.387Z,19.50
2019-04-28T16:20:02.591Z,19.40
2019-04-28T16:22:29.748Z,19.50
2019-04-28T16:24:57.848Z,19.40
2019-04-28T16:27:24.988Z,19.30
2019-04-28T16:29:53.456Z,19.40
2019-04-28T16:32:20.668Z,18.80
2019-04-28T16:34:48.068Z,18.90
2019-04-28T16:37:15.147Z,18.40
2019-04-28T16:39:43.747Z,18.50
2019-04-28T16:42:18.387Z,18.40
2019-04-28T16:44:49.167Z,18.50
2019-04-28T16:47:21.468Z,18.10
2019-04-28T16:49:48.633Z,18.20
2019-04-28T16:52:16.088Z,18.30
2019-04-28T16:54:43.549Z,18.20
2019-04-28T16:57:15.308Z,18.00
2019-04-28T16:59:50.068Z,18.60
2019-04-28T17:02:21.788Z,18.20
2019-04-28T17:04:48.908Z,18.20
2019-04-28T17:07:16.191Z,18.20
2019-04-28T17:09:43.627Z,17.90
2019-04-28T17:12:12.248Z,17.80
2019-04-28T17:14:39.798Z,17.70
2019-04-28T17:17:07.249Z,17.30
2019-04-28T17:19:34.807Z,17.20
2019-04-28T17:22:02.053Z,17.30
2019-04-28T17:24:29.187Z,17.00
2019-04-28T17:26:56.348Z,17.00
2019-04-28T17:29:23.810Z,16.70
2019-04-28T17:31:50.949Z,16.70
2019-04-28T17:34:18.608Z,16.60
2019-04-28T17:36:47.469Z,16.60
2019-04-28T17:39:16.088Z,16.50
2019-04-28T17:41:43.467Z,16.20
2019-04-28T17:44:10.687Z,16.20
2019-04-28T17:46:37.948Z,16.10
2019-04-28T17:49:05.310Z,16.00
2019-04-28T17:51:33.302Z,15.70
2019-04-28T17:54:00.355Z,16.00
2019-04-28T17:56:27.515Z,15.70
2019-04-28T17:58:54.627Z,15.70
2019-04-28T18:01:34.047Z,15.60
2019-04-28T18:04:02.967Z,15.50
2019-04-28T18:06:32.033Z,15.60
2019-04-28T18:08:59.150Z,15.60
2019-04-28T18:11:26.407Z,15.50
2019-04-28T18:13:53.538Z,15.30
2019-04-28T18:16:34.244Z,15.30
2019-04-28T18:19:05.986Z,15.20
2019-04-28T18:21:33.465Z,15.20
2019-04-28T18:24:00.784Z,15.00
2019-04-28T18:26:29.287Z,15.10
2019-04-28T18:28:56.750Z,15.00
2019-04-28T18:34:30.979Z,14.80
2019-04-28T18:37:02.925Z,14.80
2019-04-28T18:39:48.631Z,14.70
2019-04-28T18:42:17.630Z,14.80
2019-04-28T18:44:45.385Z,14.70
2019-04-28T18:47:13.865Z,14.60
2019-04-28T18:49:40.931Z,14.70
2019-04-28T18:52:09.184Z,14.50
2019-04-28T18:54:36.265Z,14.50
2019-04-28T18:57:03.591Z,14.70
2019-04-28T18:59:31.480Z,14.50
2019-04-28T19:02:09.567Z,14.60
2019-04-28T19:04:37.285Z,14.50
2019-04-28T19:07:06.006Z,14.60
2019-04-28T19:09:35.124Z,14.50
2019-04-28T19:12:20.966Z,14.50
2019-04-28T19:14:59.305Z,14.50
2019-04-28T19:17:31.345Z,14.60
2019-04-28T19:19:58.485Z,14.60
2019-04-28T19:22:25.965Z,14.40
2019-04-28T19:24:53.105Z,14.50
2019-04-28T19:27:20.490Z,14.50
2019-04-28T19:29:47.805Z,14.20
2019-04-28T19:32:15.385Z,14.30
2019-04-28T19:34:42.524Z,14.30
2019-04-28T19:37:09.765Z,14.10
2019-04-28T19:39:37.124Z,14.10
2019-04-28T19:42:05.888Z,14.10
2019-04-28T19:44:33.665Z,13.90
2019-04-28T19:47:00.827Z,13.80
2019-04-28T19:49:28.064Z,13.90
2019-04-28T19:51:56.546Z,13.90
2019-04-28T19:54:25.644Z,13.90
2019-04-28T19:56:54.845Z,14.00
2019-04-28T19:59:23.725Z,14.00
2019-04-28T20:01:50.985Z,14.00
2019-04-28T20:04:19.465Z,14.10
2019-04-28T20:06:46.909Z,14.00
2019-04-28T20:09:14.065Z,13.90
2019-04-28T20:11:41.225Z,13.70
2019-04-28T20:14:08.467Z,13.80
2019-04-28T20:16:35.747Z,13.80
2019-04-28T20:19:03.065Z,13.90
2019-04-28T20:21:30.324Z,14.00
2019-04-28T20:23:57.442Z,14.00
2019-04-28T20:26:24.666Z,14.00
2019-04-28T20:28:53.005Z,14.00
2019-04-28T20:31:20.126Z,13.80
2019-04-28T20:33:48.505Z,13.90
2019-04-28T20:36:21.207Z,13.80
2019-04-28T20:38:50.306Z,13.70
2019-04-28T20:41:25.439Z,13.60
2019-04-28T20:43:54.121Z,13.80
2019-04-28T20:46:21.304Z,13.60
2019-04-28T20:48:48.722Z,13.60
2019-04-28T20:51:15.860Z,13.50
2019-04-28T20:53:42.966Z,13.60
2019-04-28T20:56:10.180Z,13.40
2019-04-28T20:58:37.479Z,13.50
2019-04-28T21:01:04.679Z,13.50
2019-04-28T21:03:33.164Z,13.40
2019-04-28T21:06:00.619Z,13.40
2019-04-28T21:08:28.159Z,13.50
2019-04-28T21:10:55.341Z,13.40
2019-04-28T21:13:22.560Z,13.40
2019-04-28T21:15:49.714Z,13.40
2019-04-28T21:18:18.509Z,13.40
2019-04-28T21:20:45.870Z,13.40
2019-04-28T21:23:13.052Z,13.30
2019-04-28T21:25:40.450Z,13.40
2019-04-28T21:28:07.630Z,13.50
2019-04-28T21:30:34.981Z,13.40
2019-04-28T21:33:02.318Z,13.30
2019-04-28T21:35:29.660Z,13.40
2019-04-28T21:37:58.138Z,13.40
2019-04-28T21:40:26.318Z,13.30
2019-04-28T21:42:58.224Z,13.30
2019-04-28T21:45:27.277Z,13.20
2019-04-28T21:47:54.518Z,13.20
2019-04-28T21:50:21.777Z,13.20
2019-04-28T21:52:48.922Z,13.00
2019-04-28T21:55:16.623Z,13.10
2019-04-28T21:57:43.743Z,13.10
2019-04-28T22:00:14.022Z,13.00
2019-04-28T22:02:41.242Z,13.10
2019-04-28T22:05:08.842Z,13.10
2019-04-28T22:07:37.682Z,13.00
2019-04-28T22:10:05.922Z,13.10
2019-04-28T22:12:33.067Z,13.00
2019-04-28T22:15:00.543Z,13.10
2019-04-28T22:17:28.002Z,13.10
2019-04-28T22:19:55.562Z,13.10
2019-04-28T22:22:23.202Z,13.10
2019-04-28T22:24:55.163Z,13.10
2019-04-28T22:27:24.282Z,12.80
2019-04-28T22:29:52.642Z,12.90
2019-04-28T22:32:20.021Z,12.70
2019-04-28T22:34:48.781Z,12.70
2019-04-28T22:37:16.161Z,12.60
2019-04-28T22:39:47.052Z,12.60
2019-04-28T22:42:14.021Z,12.40
2019-04-28T22:44:41.161Z,12.40
2019-04-28T22:47:08.623Z,12.30
2019-04-28T22:49:37.262Z,12.20
2019-04-28T22:52:04.762Z,12.20
2019-04-28T22:54:48.870Z,12.00
2019-04-28T22:57:32.966Z,12.10
2019-04-28T23:00:00.741Z,12.10
2019-04-28T23:02:29.915Z,12.00
2019-04-28T23:05:05.555Z,11.90
2019-04-28T23:07:32.733Z,11.80
2019-04-28T23:09:59.954Z,11.70
2019-04-28T23:12:27.414Z,11.70
2019-04-28T23:14:55.895Z,11.70
2019-04-28T23:17:23.496Z,11.80
2019-04-28T23:19:50.715Z,11.70
2019-04-28T23:22:19.694Z,11.70
2019-04-28T23:24:46.974Z,11.80
2019-04-28T23:27:14.303Z,11.60
2019-04-28T23:29:42.895Z,11.60
2019-04-28T23:32:27.554Z,11.60
2019-04-28T23:34:54.834Z,11.80
2019-04-28T23:37:22.394Z,11.60
2019-04-28T23:39:49.595Z,11.60
2019-04-28T23:42:33.755Z,11.50
2019-04-28T23:45:00.835Z,11.50
2019-04-28T23:47:28.055Z,11.50
2019-04-28T23:49:55.414Z,11.50
2019-04-28T23:52:24.396Z,11.50
2019-04-28T23:54:56.353Z,11.50
2019-04-28T23:57:24.014Z,11.50
2019-04-28T23:59:51.474Z,11.40
